California Correctional Inst, California
Current Conditions -  °F | °C
As of 7:15 PM on Tuesday 25 Nov 2014 (Local Time) from KTSP Reporting Station
Clear Clear  
Wind Chill: 40°   Ceiling: Unl
Heat Index: 43°   Visibility: 10mi
Dew Point: 19°   Wind: 5mph
Humidity: 39%   Direction: 120°ESE
Pressure: 30.44"   Gusts: NA
Location:  35.1338°N, 118.552°W
Report Text: KTSP 260315Z AUTO 12004KT 10SM CLR 06/M07 A3044 RMK AO2
Loading
Personal Weather Stations






























Interactive Weather Map New forecast layout! Learn more

10-Day Weather Forecast

Advertisements
Track Severe Weather on mobile